Time;durP1;ratioP1;P1;durP2;ratioP2;P2;SDS_P1;SDS_P2;PMS_P1;PMS_P2;Temp;Humidity;BMP_temperature;BMP_pressure;BME280_temperature;BME280_humidity;BME280_pressure;Samples;Min_cycle;Max_cycle;Signal;HPM_P1;HPM_P2
2023/01/20 00:00:10;;;;;;;0.20;0.20;;;;;;;9.12;100.00;98306.63;5112061;28;20225;-62
2023/01/20 00:02:37;;;;;;;0.20;0.20;;;;;;;9.10;100.00;98305.94;5112561;28;20213;-59
2023/01/20 00:05:04;;;;;;;0.40;0.40;;;;;;;9.05;100.00;98303.75;5110913;28;20891;-59
2023/01/20 00:07:33;;;;;;;0.30;0.30;;;;;;;9.14;100.00;98304.78;5112095;28;20204;-62
2023/01/20 00:10:00;;;;;;;0.33;0.33;;;;;;;9.21;100.00;98305.09;5112099;28;20458;-62
2023/01/20 00:12:30;;;;;;;0.50;0.50;;;;;;;9.19;100.00;98302.69;5111941;28;20205;-62
2023/01/20 00:14:57;;;;;;;0.40;0.40;;;;;;;9.12;100.00;98308.38;5111864;28;20228;-62
2023/01/20 00:17:25;;;;;;;0.30;0.30;;;;;;;9.00;100.00;98302.50;5111855;28;20204;-62
2023/01/20 00:19:52;;;;;;;0.30;0.30;;;;;;;9.01;100.00;98310.00;5111997;28;20232;-62
2023/01/20 00:22:20;;;;;;;0.20;0.20;;;;;;;9.02;100.00;98295.56;5111951;28;20201;-62
2023/01/20 00:24:47;;;;;;;0.37;0.37;;;;;;;8.99;100.00;98295.78;5111761;28;20236;-62
2023/01/20 00:27:15;;;;;;;0.70;0.40;;;;;;;8.96;100.00;98301.09;5111877;28;20209;-62
2023/01/20 00:29:43;;;;;;;0.30;0.30;;;;;;;9.04;100.00;98298.78;5111669;28;20231;-62
2023/01/20 00:32:10;;;;;;;0.40;0.40;;;;;;;9.00;100.00;98298.22;5111665;28;20197;-59
2023/01/20 00:34:38;;;;;;;0.30;0.30;;;;;;;9.11;100.00;98289.72;5111762;28;20230;-62
2023/01/20 00:37:05;;;;;;;0.37;0.37;;;;;;;9.04;100.00;98273.28;5111622;28;20213;-59
2023/01/20 00:39:32;;;;;;;0.30;0.30;;;;;;;9.00;100.00;98277.81;5111998;28;20221;-62
2023/01/20 00:41:58;;;;;;;0.40;0.40;;;;;;;8.88;100.00;98268.59;5111615;28;20593;-62
2023/01/20 00:44:25;;;;;;;0.20;0.20;;;;;;;8.77;100.00;98256.66;5111351;28;20229;-62
2023/01/20 00:46:52;;;;;;;0.40;0.40;;;;;;;8.84;100.00;98252.72;5111642;28;20197;-62
2023/01/20 00:49:19;;;;;;;0.50;0.50;;;;;;;8.91;100.00;98255.59;5111162;28;20217;-59
2023/01/20 00:51:47;;;;;;;0.50;0.50;;;;;;;8.78;100.00;98258.28;5111127;28;20193;-59
2023/01/20 00:54:14;;;;;;;0.30;0.30;;;;;;;8.81;100.00;98258.06;5111388;28;20724;-62
2023/01/20 00:56:41;;;;;;;0.10;0.10;;;;;;;8.74;100.00;98251.81;5111128;28;20197;-59
2023/01/20 00:59:09;;;;;;;0.10;0.10;;;;;;;8.80;100.00;98265.81;5111491;28;20235;-59
2023/01/20 01:01:35;;;;;;;1.03;0.57;;;;;;;8.53;100.00;98268.78;5110959;28;20201;-59
2023/01/20 01:04:02;;;;;;;0.10;0.10;;;;;;;8.55;100.00;98264.34;5111270;28;20221;-59
2023/01/20 01:06:29;;;;;;;0.10;0.10;;;;;;;8.61;100.00;98276.66;5110871;28;20231;-62
2023/01/20 01:08:57;;;;;;;0.00;0.00;;;;;;;8.51;100.00;98270.63;5111164;27;20217;-62
2023/01/20 01:11:24;;;;;;;0.53;0.50;;;;;;;8.45;100.00;98281.28;5110688;28;20227;-62
2023/01/20 01:13:51;;;;;;;0.10;0.10;;;;;;;8.29;100.00;98282.44;5110629;28;20760;-62
2023/01/20 01:16:18;;;;;;;0.10;0.10;;;;;;;8.23;100.00;98282.91;5110337;28;20361;-62
2023/01/20 01:18:45;;;;;;;0.00;0.00;;;;;;;8.22;100.00;98265.97;5111079;28;20217;-62
2023/01/20 01:21:14;;;;;;;0.10;0.10;;;;;;;8.28;100.00;98268.06;5110661;28;20197;-62
2023/01/20 01:23:41;;;;;;;0.10;0.10;;;;;;;8.28;100.00;98265.50;5110699;28;20733;-62
2023/01/20 01:26:10;;;;;;;0.37;0.20;;;;;;;8.25;100.00;98265.75;5110575;28;20228;-59
2023/01/20 01:28:36;;;;;;;0.20;0.20;;;;;;;8.26;100.00;98271.63;5110537;28;20221;-58
2023/01/20 01:31:05;;;;;;;0.10;0.10;;;;;;;8.23;100.00;98272.72;5110874;28;20238;-59
2023/01/20 01:33:32;;;;;;;0.23;0.23;;;;;;;8.12;100.00;98276.06;5110365;28;20216;-59
2023/01/20 01:36:00;;;;;;;1.60;0.77;;;;;;;8.12;100.00;98270.16;5110335;28;20621;-59
2023/01/20 01:38:28;;;;;;;0.10;0.10;;;;;;;8.13;100.00;98267.47;5110692;28;20227;-59
2023/01/20 01:40:55;;;;;;;0.00;0.00;;;;;;;8.29;100.00;98276.50;5110272;28;20662;-59
2023/01/20 01:43:26;;;;;;;0.10;0.10;;;;;;;8.30;100.00;98258.56;5110242;27;20200;-58
2023/01/20 01:45:53;;;;;;;0.10;0.10;;;;;;;8.37;100.00;98254.63;5110399;28;20229;-59
2023/01/20 01:48:23;;;;;;;0.40;0.40;;;;;;;8.31;100.00;98244.09;5110119;28;20201;-59
2023/01/20 01:50:56;;;;;;;0.10;0.10;;;;;;;8.39;100.00;98229.06;5110013;28;20201;-59
2023/01/20 01:53:23;;;;;;;0.10;0.10;;;;;;;8.39;100.00;98219.69;5110395;28;20201;-59
2023/01/20 01:55:53;;;;;;;0.17;0.17;;;;;;;8.39;100.00;98226.53;5110449;28;20231;-59
2023/01/20 01:58:27;;;;;;;0.50;0.27;;;;;;;8.58;100.00;98221.63;5110259;28;20193;-59
2023/01/20 02:00:54;;;;;;;0.07;0.07;;;;;;;8.62;100.00;98222.19;5109904;28;20595;-59
2023/01/20 02:03:21;;;;;;;0.00;0.00;;;;;;;8.63;100.00;98234.00;5109962;28;20197;-59
2023/01/20 02:05:52;;;;;;;0.03;0.03;;;;;;;8.61;100.00;98231.59;5110032;28;20229;-59
2023/01/20 02:08:20;;;;;;;0.10;0.10;;;;;;;8.69;100.00;98237.81;5109860;28;20201;-59
2023/01/20 02:10:47;;;;;;;0.47;0.47;;;;;;;8.79;100.00;98234.44;5110064;28;20208;-59
2023/01/20 02:13:13;;;;;;;0.00;0.00;;;;;;;8.69;100.00;98235.25;5109873;28;20201;-59
2023/01/20 02:15:50;;;;;;;0.53;0.10;;;;;;;8.68;100.00;98226.81;5109999;28;20197;-59
2023/01/20 02:18:34;;;;;;;0.20;0.20;;;;;;;8.71;100.00;98235.97;5110084;28;20204;-59
2023/01/20 02:21:26;;;;;;;0.20;0.10;;;;;;;8.82;100.00;98249.47;5110261;28;20204;-59
2023/01/20 02:24:25;;;;;;;0.10;0.10;;;;;;;8.83;100.00;98258.72;5109649;28;20221;-59
2023/01/20 02:27:03;;;;;;;0.07;0.07;;;;;;;8.79;100.00;98243.81;5088695;28;20225;-59
2023/01/20 02:30:00;;;;;;;0.10;0.10;;;;;;;8.89;100.00;98261.75;5114361;28;20220;-59
2023/01/20 02:32:38;;;;;;;0.10;0.10;;;;;;;9.00;100.00;98274.47;5113873;28;20200;-59
2023/01/20 02:35:10;;;;;;;0.70;0.37;;;;;;;8.82;100.00;98274.97;5113867;28;20228;-59
2023/01/20 02:37:46;;;;;;;0.00;0.00;;;;;;;8.88;100.00;98288.19;5113734;27;20205;-59
2023/01/20 02:40:26;;;;;;;0.00;0.00;;;;;;;8.90;100.00;98320.25;5113971;28;20217;-59
2023/01/20 02:43:02;;;;;;;0.10;0.10;;;;;;;8.82;100.00;98376.13;5113713;28;20201;-60
2023/01/20 02:45:35;;;;;;;0.23;0.23;;;;;;;8.55;100.00;98386.63;5113652;28;20301;-59
2023/01/20 02:48:13;;;;;;;0.23;0.17;;;;;;;8.43;100.00;98385.03;5113638;28;20641;-59
2023/01/20 02:50:54;;;;;;;0.00;0.00;;;;;;;8.32;100.00;98287.28;5113608;28;20209;-59
2023/01/20 02:53:23;;;;;;;0.20;0.20;;;;;;;8.28;100.00;98219.66;5113411;28;20211;-59
2023/01/20 02:55:54;;;;;;;0.10;0.10;;;;;;;8.45;100.00;98204.88;5113538;28;20205;-59
2023/01/20 02:58:25;;;;;;;0.10;0.10;;;;;;;8.47;100.00;98216.56;5113342;28;20225;-59
2023/01/20 03:00:55;;;;;;;0.10;0.10;;;;;;;8.33;100.00;98217.59;5113567;27;20208;-59
2023/01/20 03:03:26;;;;;;;0.30;0.20;;;;;;;8.25;100.00;98216.56;5113019;28;20212;-59
2023/01/20 03:05:57;;;;;;;0.90;0.70;;;;;;;8.10;100.00;98232.06;5113382;28;20709;-59
2023/01/20 03:08:26;;;;;;;0.20;0.20;;;;;;;8.31;100.00;98242.34;5113105;28;20201;-59
2023/01/20 03:10:57;;;;;;;1.07;0.87;;;;;;;8.47;100.00;98238.69;5113345;28;20212;-59
2023/01/20 03:13:32;;;;;;;0.20;0.20;;;;;;;8.21;100.00;98233.81;5112943;28;20202;-59
2023/01/20 03:16:01;;;;;;;0.10;0.10;;;;;;;7.97;100.00;98228.84;5113200;28;20212;-60
2023/01/20 03:18:31;;;;;;;0.13;0.10;;;;;;;8.04;100.00;98206.28;5112814;28;20248;-59
2023/01/20 03:20:58;;;;;;;0.20;0.20;;;;;;;7.99;100.00;98198.16;5113111;28;20219;-59
2023/01/20 03:23:26;;;;;;;0.10;0.10;;;;;;;8.00;100.00;98179.41;5112938;28;20193;-64
2023/01/20 03:25:55;;;;;;;0.10;0.10;;;;;;;8.12;100.00;98176.75;5112886;28;20232;-63
2023/01/20 03:28:22;;;;;;;0.30;0.30;;;;;;;8.13;100.00;98168.19;5112706;28;20559;-63
2023/01/20 03:30:49;;;;;;;0.30;0.30;;;;;;;7.96;100.00;98155.13;5112828;28;20204;-63
2023/01/20 03:33:17;;;;;;;0.00;0.00;;;;;;;7.88;100.00;98160.81;5112782;28;20617;-64
2023/01/20 03:35:46;;;;;;;0.27;0.27;;;;;;;7.87;100.00;98138.84;5113307;28;20201;-63
2023/01/20 03:38:13;;;;;;;0.10;0.10;;;;;;;7.86;100.00;98130.41;5112372;27;20216;-59
2023/01/20 03:40:47;;;;;;;1.80;0.53;;;;;;;7.81;100.00;98119.75;5112734;28;20201;-63
2023/01/20 03:43:21;;;;;;;0.00;0.00;;;;;;;7.91;100.00;98114.75;5112639;28;20197;-63
2023/01/20 03:45:55;;;;;;;0.10;0.10;;;;;;;7.95;100.00;98111.06;5112637;28;20227;-59
2023/01/20 03:48:31;;;;;;;0.00;0.00;;;;;;;7.77;100.00;98087.84;5112420;28;20201;-59
2023/01/20 03:51:10;;;;;;;0.33;0.23;;;;;;;8.07;100.00;98106.75;5112677;28;20205;-58
2023/01/20 03:53:44;;;;;;;0.00;0.00;;;;;;;7.69;100.00;98123.25;5112660;28;20217;-58
2023/01/20 03:56:18;;;;;;;0.10;0.10;;;;;;;7.98;100.00;98140.56;5112802;28;20662;-63
2023/01/20 03:58:48;;;;;;;0.10;0.10;;;;;;;7.91;100.00;98133.41;5112179;28;20213;-58
2023/01/20 04:01:17;;;;;;;0.23;0.23;;;;;;;8.08;100.00;98147.34;5112033;28;20197;-59
2023/01/20 04:03:47;;;;;;;0.00;0.00;;;;;;;8.08;100.00;98138.91;5112342;28;20597;-58
2023/01/20 04:06:19;;;;;;;0.07;0.07;;;;;;;8.22;100.00;98138.66;5112321;28;20232;-59
2023/01/20 04:08:51;;;;;;;0.10;0.10;;;;;;;7.97;100.00;98123.66;5112087;28;20226;-59
2023/01/20 04:11:18;;;;;;;2.67;0.30;;;;;;;7.81;100.00;98127.38;5112183;28;20580;-59
2023/01/20 04:13:45;;;;;;;0.33;0.33;;;;;;;7.89;100.00;98129.34;5111970;28;20213;-59
2023/01/20 04:16:15;;;;;;;0.10;0.10;;;;;;;7.90;100.00;98130.97;5112031;28;20205;-63
2023/01/20 04:18:44;;;;;;;0.00;0.00;;;;;;;7.79;100.00;98119.06;5111952;28;20225;-63
2023/01/20 04:21:15;;;;;;;0.27;0.27;;;;;;;7.76;100.00;98106.56;5112251;28;20201;-63
2023/01/20 04:23:50;;;;;;;1.30;0.53;;;;;;;7.71;100.00;98116.31;5111912;28;20214;-63
2023/01/20 04:26:17;;;;;;;0.20;0.20;;;;;;;7.66;100.00;98116.63;5111776;28;20228;-64
2023/01/20 04:28:43;;;;;;;0.23;0.20;;;;;;;7.61;100.00;98130.63;5111504;28;20218;-63
2023/01/20 04:31:11;;;;;;;0.40;0.40;;;;;;;7.57;100.00;98129.25;5111843;28;20230;-64
2023/01/20 04:33:38;;;;;;;0.20;0.20;;;;;;;7.73;100.00;98139.88;5111734;28;20264;-64
2023/01/20 04:36:05;;;;;;;0.53;0.30;;;;;;;8.11;100.00;98141.22;5111713;28;20201;-64
2023/01/20 04:38:32;;;;;;;0.83;0.30;;;;;;;7.68;100.00;98129.25;5111645;28;20601;-64
2023/01/20 04:41:00;;;;;;;0.27;0.27;;;;;;;8.05;100.00;98131.53;5111599;28;20584;-63
2023/01/20 04:43:27;;;;;;;0.53;0.53;;;;;;;8.12;100.00;98130.13;5111626;28;20221;-64
2023/01/20 04:45:54;;;;;;;2.83;1.03;;;;;;;8.00;100.00;98134.44;5111539;28;20240;-64
2023/01/20 04:48:21;;;;;;;0.40;0.40;;;;;;;7.82;100.00;98125.66;5111355;28;20201;-64
2023/01/20 04:50:48;;;;;;;1.30;0.97;;;;;;;7.75;100.00;98122.75;5110548;28;20213;-64
2023/01/20 04:53:17;;;;;;;0.77;0.73;;;;;;;7.85;100.00;98126.25;5111136;28;20194;-64
2023/01/20 04:55:45;;;;;;;0.70;0.70;;;;;;;7.98;100.00;98122.75;5111528;28;20201;-64
2023/01/20 04:58:13;;;;;;;0.90;0.90;;;;;;;7.91;100.00;98128.31;5111063;28;20189;-64
2023/01/20 05:00:40;;;;;;;0.47;0.47;;;;;;;7.96;100.00;98122.84;5111037;28;20205;-64
2023/01/20 05:03:07;;;;;;;0.40;0.40;;;;;;;8.01;100.00;98119.97;5110676;28;20208;-64
2023/01/20 05:05:34;;;;;;;0.20;0.20;;;;;;;8.01;100.00;98109.78;5111025;28;20262;-64
2023/01/20 05:08:03;;;;;;;0.10;0.10;;;;;;;8.00;100.00;98108.16;5110996;28;20201;-64
2023/01/20 05:10:31;;;;;;;0.10;0.10;;;;;;;7.87;100.00;98093.03;5111167;28;20217;-64
2023/01/20 05:12:58;;;;;;;0.73;0.30;;;;;;;7.86;100.00;98079.50;5110985;28;20205;-64
2023/01/20 05:15:26;;;;;;;0.17;0.17;;;;;;;7.92;100.00;98071.38;5110858;28;20228;-64
2023/01/20 05:17:53;;;;;;;0.30;0.30;;;;;;;8.05;100.00;98080.59;5110669;28;20212;-64
2023/01/20 05:20:20;;;;;;;0.13;0.13;;;;;;;7.92;100.00;98081.56;5110630;28;20221;-64
2023/01/20 05:22:47;;;;;;;0.53;0.43;;;;;;;7.77;100.00;98076.88;5110494;28;20679;-64
2023/01/20 05:25:14;;;;;;;0.20;0.20;;;;;;;7.81;100.00;98068.84;5110929;28;20228;-64
2023/01/20 05:27:41;;;;;;;0.50;0.10;;;;;;;7.81;100.00;98062.97;5110429;28;20289;-64
2023/01/20 05:30:09;;;;;;;0.10;0.10;;;;;;;7.97;100.00;98053.22;5110486;28;20236;-64
2023/01/20 05:32:37;;;;;;;0.43;0.20;;;;;;;7.80;100.00;98057.06;5110424;28;20215;-63
2023/01/20 05:35:05;;;;;;;0.60;0.40;;;;;;;7.55;100.00;98057.34;5110595;28;20374;-59
2023/01/20 05:37:32;;;;;;;0.20;0.20;;;;;;;7.41;100.00;98061.72;5110492;28;20209;-59
2023/01/20 05:39:58;;;;;;;0.10;0.10;;;;;;;7.45;100.00;98068.22;5110210;28;20227;-59
2023/01/20 05:42:25;;;;;;;0.17;0.17;;;;;;;7.46;100.00;98067.28;5110237;28;20204;-59
2023/01/20 05:44:52;;;;;;;0.20;0.20;;;;;;;7.17;100.00;98073.75;5110070;28;20228;-59
2023/01/20 05:47:19;;;;;;;0.10;0.10;;;;;;;7.11;100.00;98071.66;5110087;28;20235;-59
2023/01/20 05:49:47;;;;;;;0.73;0.30;;;;;;;7.13;100.00;98067.28;5110315;28;20243;-59
2023/01/20 05:52:14;;;;;;;0.20;0.20;;;;;;;7.31;100.00;98065.91;5109952;28;20195;-59
2023/01/20 05:54:41;;;;;;;0.10;0.10;;;;;;;7.06;100.00;98066.09;5110413;28;20213;-59
2023/01/20 05:57:08;;;;;;;0.20;0.20;;;;;;;6.85;100.00;98058.34;5109990;28;20197;-59
2023/01/20 05:59:35;;;;;;;0.37;0.37;;;;;;;6.84;100.00;98057.53;5110045;28;20236;-59
2023/01/20 06:02:01;;;;;;;2.17;0.93;;;;;;;6.82;100.00;98054.28;5109892;28;20279;-59
2023/01/20 06:04:28;;;;;;;0.40;0.40;;;;;;;6.78;100.00;98052.91;5109881;28;20235;-59
2023/01/20 06:06:57;;;;;;;0.37;0.27;;;;;;;6.71;100.00;98041.56;5109767;28;20237;-59
2023/01/20 06:09:24;;;;;;;0.20;0.20;;;;;;;6.70;100.00;98030.59;5109989;28;20217;-59
2023/01/20 06:11:51;;;;;;;0.30;0.27;;;;;;;6.84;100.00;98033.88;5109733;28;20205;-59
2023/01/20 06:14:18;;;;;;;0.27;0.27;;;;;;;6.74;100.00;98036.25;5109857;28;20723;-63
2023/01/20 06:16:45;;;;;;;0.30;0.30;;;;;;;6.78;100.00;98047.81;5109858;28;20201;-60
2023/01/20 06:19:12;;;;;;;0.53;0.53;;;;;;;6.94;100.00;98038.13;5109905;28;20227;-60
2023/01/20 06:21:38;;;;;;;0.27;0.23;;;;;;;6.89;100.00;98050.38;5110144;28;20211;-63
2023/01/20 06:24:07;;;;;;;0.40;0.40;;;;;;;6.90;100.00;98057.09;5109513;28;20209;-63
2023/01/20 06:26:34;;;;;;;0.20;0.20;;;;;;;6.90;100.00;98051.19;5109938;28;20229;-59
2023/01/20 06:29:01;;;;;;;0.40;0.40;;;;;;;6.88;100.00;98043.66;5109945;28;20225;-63
2023/01/20 06:31:28;;;;;;;1.17;0.30;;;;;;;7.06;100.00;98059.28;5109867;28;20205;-58
2023/01/20 06:33:55;;;;;;;0.27;0.27;;;;;;;7.06;100.00;98050.84;5109699;28;20535;-59
2023/01/20 06:36:23;;;;;;;0.57;0.57;;;;;;;6.88;100.00;98043.66;5109774;28;20208;-63
2023/01/20 06:38:51;;;;;;;0.23;0.20;;;;;;;6.93;100.00;98051.78;5109790;28;20213;-59
2023/01/20 06:41:20;;;;;;;0.23;0.23;;;;;;;7.11;100.00;98051.31;5109803;28;20569;-63
2023/01/20 06:43:49;;;;;;;0.30;0.30;;;;;;;6.89;100.00;98055.44;5109558;28;20213;-59
2023/01/20 06:46:16;;;;;;;0.63;0.20;;;;;;;6.90;100.00;98064.72;5109504;28;20216;-59
2023/01/20 06:48:44;;;;;;;0.33;0.33;;;;;;;6.86;100.00;98070.91;5109471;28;20615;-59
2023/01/20 06:51:13;;;;;;;0.37;0.30;;;;;;;6.96;100.00;98082.03;5109747;28;20197;-59
2023/01/20 06:53:41;;;;;;;0.10;0.10;;;;;;;7.22;100.00;98079.31;5109351;28;20229;-63
2023/01/20 06:56:10;;;;;;;0.50;0.50;;;;;;;7.03;100.00;98078.09;5109567;28;20205;-59
2023/01/20 06:58:39;;;;;;;0.27;0.23;;;;;;;7.10;100.00;98087.81;5109415;28;20213;-59
2023/01/20 07:01:08;;;;;;;2.57;0.90;;;;;;;7.06;100.00;98086.44;5109544;28;20197;-59
2023/01/20 07:03:35;;;;;;;1.07;0.90;;;;;;;7.06;100.00;98086.44;5109391;28;20281;-59
2023/01/20 07:06:04;;;;;;;1.20;0.70;;;;;;;7.33;100.00;98074.22;5109623;28;20202;-59
2023/01/20 07:08:31;;;;;;;0.73;0.20;;;;;;;7.46;100.00;98079.19;5109307;28;20221;-59
2023/01/20 07:10:58;;;;;;;0.27;0.23;;;;;;;7.38;100.00;98067.03;5109498;28;20220;-63
2023/01/20 07:13:25;;;;;;;0.43;0.40;;;;;;;7.38;100.00;98058.59;5110448;28;20397;-59
2023/01/20 07:15:53;;;;;;;0.27;0.27;;;;;;;7.48;100.00;98055.25;5113224;28;20209;-63
2023/01/20 07:18:20;;;;;;;0.70;0.70;;;;;;;7.44;100.00;98041.16;5112885;28;20201;-63
2023/01/20 07:20:47;;;;;;;0.67;0.67;;;;;;;7.37;100.00;98034.91;5113144;28;20205;-59
2023/01/20 07:23:14;;;;;;;1.37;0.90;;;;;;;7.49;100.00;98033.19;5113081;28;20201;-59
2023/01/20 07:25:40;;;;;;;0.50;0.50;;;;;;;7.73;100.00;98035.56;5112977;28;20669;-59
2023/01/20 07:28:07;;;;;;;0.40;0.40;;;;;;;7.56;100.00;98028.41;5113029;28;20242;-59
2023/01/20 07:30:34;;;;;;;0.97;0.47;;;;;;;7.58;100.00;98026.56;5113078;28;20205;-63
2023/01/20 07:33:04;;;;;;;0.27;0.27;;;;;;;7.49;100.00;98023.81;5112599;28;20239;-58
2023/01/20 07:35:31;;;;;;;0.37;0.37;;;;;;;7.54;100.00;98023.47;5112929;28;20217;-59
2023/01/20 07:37:58;;;;;;;0.27;0.27;;;;;;;7.64;100.00;98016.72;5112641;28;20212;-59
2023/01/20 07:40:25;;;;;;;0.20;0.20;;;;;;;7.81;100.00;98020.50;5112568;28;20744;-59
2023/01/20 07:42:52;;;;;;;0.20;0.20;;;;;;;7.90;100.00;98026.63;5112484;28;20201;-59
2023/01/20 07:45:18;;;;;;;0.20;0.20;;;;;;;8.06;100.00;98018.59;5112666;28;20282;-59
2023/01/20 07:47:45;;;;;;;0.80;0.60;;;;;;;8.26;100.00;98022.91;5112673;28;20237;-59
2023/01/20 07:50:14;;;;;;;0.13;0.13;;;;;;;8.36;100.00;98018.69;5112936;28;20236;-63
2023/01/20 07:52:41;;;;;;;0.30;0.30;;;;;;;8.36;100.00;98023.78;5112614;28;20205;-63
2023/01/20 07:55:08;;;;;;;1.33;0.73;;;;;;;8.58;100.00;98027.16;5112442;28;20704;-59
2023/01/20 07:57:35;;;;;;;0.30;0.30;;;;;;;8.61;100.00;98027.75;5112571;28;20201;-63
2023/01/20 08:00:02;;;;;;;0.30;0.30;;;;;;;8.59;100.00;98016.88;5112424;28;20733;-59
2023/01/20 08:02:29;;;;;;;0.67;0.53;;;;;;;8.76;100.00;98019.78;5112197;28;20221;-63
2023/01/20 08:04:55;;;;;;;0.90;0.80;;;;;;;8.98;100.00;98018.81;5112315;28;20232;-63
2023/01/20 08:07:24;;;;;;;0.40;0.40;;;;;;;8.93;100.00;98026.03;5112404;28;20233;-59
2023/01/20 08:09:50;;;;;;;0.20;0.17;;;;;;;9.20;100.00;98017.84;5112137;28;20225;-62
2023/01/20 08:12:17;;;;;;;0.40;0.40;;;;;;;9.30;100.00;98018.69;5112057;28;20205;-62
2023/01/20 08:14:45;;;;;;;0.67;0.50;;;;;;;9.47;100.00;98024.91;5112687;28;20249;-62
2023/01/20 08:17:12;;;;;;;1.30;0.60;;;;;;;9.88;100.00;98018.81;5112062;28;20197;-62
2023/01/20 08:19:39;;;;;;;0.50;0.50;;;;;;;9.74;100.00;98016.66;5112160;28;20225;-59
2023/01/20 08:22:06;;;;;;;1.33;0.93;;;;;;;10.00;100.00;98021.25;5112181;27;20205;-59
2023/01/20 08:24:34;;;;;;;0.47;0.47;;;;;;;10.08;100.00;98024.75;5110980;28;20221;-62
2023/01/20 08:27:01;;;;;;;0.77;0.70;;;;;;;10.27;100.00;98012.94;5111745;28;20233;-59
2023/01/20 08:29:28;;;;;;;0.60;0.60;;;;;;;10.27;100.00;98023.16;5112064;28;20221;-59
2023/01/20 08:31:55;;;;;;;1.27;0.90;;;;;;;10.52;100.00;98032.84;5111799;28;20198;-62
2023/01/20 08:34:22;;;;;;;0.77;0.77;;;;;;;10.59;100.00;98033.91;5111456;28;20217;-62
2023/01/20 08:36:51;;;;;;;0.80;0.80;;;;;;;10.71;100.00;98034.56;5111682;28;20208;-63
2023/01/20 08:39:18;;;;;;;1.27;0.93;;;;;;;10.77;100.00;98020.44;5111340;28;20728;-62
2023/01/20 08:41:48;;;;;;;1.47;1.10;;;;;;;10.80;100.00;98020.97;5112018;28;20201;-59
2023/01/20 08:44:16;;;;;;;1.20;1.10;;;;;;;11.10;100.00;98017.34;5111649;28;20233;-59
2023/01/20 08:46:44;;;;;;;1.43;1.33;;;;;;;11.23;100.00;98019.63;5111964;28;20224;-59
2023/01/20 08:49:13;;;;;;;1.97;1.40;;;;;;;11.23;100.00;98016.25;5111261;28;20231;-62
2023/01/20 08:51:41;;;;;;;3.63;1.23;;;;;;;11.41;100.00;98021.41;5111503;28;20216;-59
2023/01/20 08:54:07;;;;;;;1.40;1.13;;;;;;;11.57;100.00;98024.94;5111338;28;20244;-59
2023/01/20 08:56:35;;;;;;;1.37;1.17;;;;;;;11.53;99.73;98015.97;5111897;28;20208;-62
2023/01/20 08:59:04;;;;;;;1.63;1.50;;;;;;;11.70;100.00;98004.13;5111150;28;20221;-63
2023/01/20 09:01:34;;;;;;;2.40;1.20;;;;;;;11.72;99.40;98001.41;5111348;28;20198;-63
2023/01/20 09:04:02;;;;;;;1.17;0.97;;;;;;;11.87;98.81;98002.59;5111286;28;20221;-59
2023/01/20 09:06:29;;;;;;;1.17;1.03;;;;;;;12.03;99.38;98004.47;5111262;28;20201;-59
2023/01/20 09:08:55;;;;;;;2.90;1.60;;;;;;;12.17;97.84;98005.72;5110909;28;20237;-63
2023/01/20 09:11:25;;;;;;;0.60;0.60;;;;;;;12.16;97.58;98004.13;5110951;28;20209;-63
2023/01/20 09:13:52;;;;;;;2.63;1.13;;;;;;;11.93;94.79;98007.13;5110695;28;20221;-63
2023/01/20 09:16:20;;;;;;;3.73;1.83;;;;;;;12.05;95.58;98007.69;5110799;28;20197;-63
2023/01/20 09:18:47;;;;;;;1.37;1.00;;;;;;;11.79;97.83;97997.34;5110634;28;20220;-63
2023/01/20 09:21:14;;;;;;;1.23;1.13;;;;;;;11.84;97.16;97992.59;5111067;28;20197;-63
2023/01/20 09:23:42;;;;;;;0.90;0.80;;;;;;;11.72;98.94;97976.66;5110567;28;20217;-63
2023/01/20 09:26:09;;;;;;;1.93;1.30;;;;;;;11.83;100.00;97962.81;5110809;28;20205;-59
2023/01/20 09:28:36;;;;;;;1.27;1.17;;;;;;;11.78;99.95;97965.00;5110326;28;20728;-59
2023/01/20 09:31:05;;;;;;;2.10;1.30;;;;;;;12.19;95.94;97967.97;5110599;28;20205;-59
2023/01/20 09:33:36;;;;;;;0.87;0.87;;;;;;;12.02;100.00;97976.47;5110436;28;20228;-63
2023/01/20 09:36:07;;;;;;;2.33;0.70;;;;;;;11.53;99.07;97974.19;5110440;28;20211;-63
2023/01/20 09:44:26;;;;;;;2.57;0.93;;;;;;;10.07;100.00;97966.97;5110096;28;20220;-63
2023/01/20 09:47:20;;;;;;;0.90;0.77;;;;;;;9.87;100.00;97965.34;5110269;28;20598;-63
2023/01/20 09:53:03;;;;;;;0.50;0.40;;;;;;;9.49;100.00;97952.41;5110003;28;20263;-63
2023/01/20 09:55:38;;;;;;;1.00;0.53;;;;;;;9.45;100.00;97957.91;5110439;28;20217;-63
2023/01/20 09:58:16;;;;;;;1.13;0.80;;;;;;;9.40;100.00;97943.00;5110133;28;20200;-63
2023/01/20 10:00:47;;;;;;;0.87;0.80;;;;;;;9.34;100.00;97933.34;5110258;28;20205;-63
2023/01/20 10:03:22;;;;;;;1.20;0.80;;;;;;;9.28;100.00;97929.56;5109847;28;20194;-63
2023/01/20 10:05:56;;;;;;;1.67;0.77;;;;;;;9.35;100.00;97926.47;5110100;28;20226;-63
2023/01/20 10:08:29;;;;;;;1.53;0.87;;;;;;;9.43;100.00;97936.84;5109773;28;20602;-63
2023/01/20 10:11:06;;;;;;;1.23;0.77;;;;;;;9.69;100.00;97937.13;5110040;28;20219;-63
2023/01/20 10:13:38;;;;;;;0.77;0.70;;;;;;;9.82;100.00;97952.97;5109884;28;20224;-63
2023/01/20 10:16:11;;;;;;;0.93;0.70;;;;;;;9.92;100.00;97963.22;5110159;28;20193;-63
2023/01/20 10:18:46;;;;;;;0.87;0.50;;;;;;;9.95;100.00;97968.06;5109610;28;20719;-63
2023/01/20 10:21:20;;;;;;;0.97;0.87;;;;;;;9.87;100.00;97970.47;5109953;28;20201;-64
2023/01/20 10:23:54;;;;;;;0.87;0.57;;;;;;;9.85;100.00;97968.03;5109722;28;20216;-59
2023/01/20 10:26:30;;;;;;;1.13;1.03;;;;;;;9.90;100.00;97970.19;5109986;28;20222;-59
2023/01/20 10:29:00;;;;;;;1.40;0.90;;;;;;;9.92;100.00;97950.44;5109605;28;20708;-59
2023/01/20 10:31:29;;;;;;;1.50;1.37;;;;;;;9.84;100.00;97935.78;5110157;28;20204;-59
2023/01/20 10:34:00;;;;;;;3.20;1.67;;;;;;;9.69;100.00;97932.84;5109678;28;20221;-58
2023/01/20 10:36:33;;;;;;;4.60;2.53;;;;;;;9.67;100.00;97916.84;5109952;28;20193;-59
2023/01/20 10:39:04;;;;;;;2.17;1.67;;;;;;;9.41;100.00;97903.00;5109609;28;20803;-63
2023/01/20 10:41:39;;;;;;;1.10;0.97;;;;;;;9.48;100.00;97894.69;5109783;28;20194;-63
2023/01/20 10:44:11;;;;;;;3.63;1.53;;;;;;;9.43;100.00;97901.13;5109584;28;20250;-63
2023/01/20 10:46:53;;;;;;;1.47;1.37;;;;;;;9.53;100.00;97914.69;5109952;28;20816;-63
2023/01/20 10:49:45;;;;;;;1.70;1.20;;;;;;;9.70;100.00;97918.31;5112045;28;20247;-59
2023/01/20 10:52:28;;;;;;;1.67;1.43;;;;;;;9.67;100.00;97901.53;5113771;28;20193;-63
2023/01/20 10:55:09;;;;;;;1.40;1.30;;;;;;;9.77;100.00;97881.09;5113492;28;20209;-63
2023/01/20 10:57:37;;;;;;;1.37;1.27;;;;;;;9.72;100.00;97871.31;5113689;28;20204;-59
2023/01/20 11:00:15;;;;;;;1.60;1.47;;;;;;;10.00;100.00;97861.19;5113304;28;20253;-59
2023/01/20 11:02:43;;;;;;;0.53;0.53;;;;;;;10.27;100.00;97852.00;5112079;28;20206;-62
2023/01/20 11:05:18;;;;;;;1.47;1.10;;;;;;;10.59;100.00;97839.66;5113340;28;20255;-59
2023/01/20 11:07:47;;;;;;;1.37;1.07;;;;;;;10.85;100.00;97833.91;5113277;28;20228;-59
2023/01/20 11:10:16;;;;;;;6.63;1.93;;;;;;;11.09;100.00;97820.56;5113746;28;20247;-64
2023/01/20 11:12:45;;;;;;;1.00;0.87;;;;;;;11.25;100.00;97827.56;5113230;28;20661;-63
2023/01/20 11:15:18;;;;;;;1.53;1.43;;;;;;;10.80;100.00;97813.06;5113129;28;20221;-59
2023/01/20 11:17:45;;;;;;;2.30;1.33;;;;;;;10.74;100.00;97786.31;5113090;28;20697;-59
2023/01/20 11:20:19;;;;;;;1.20;0.90;;;;;;;10.97;100.00;97796.16;5113046;28;20221;-59
2023/01/20 11:22:49;;;;;;;2.10;1.90;;;;;;;11.12;100.00;97789.56;5113288;27;20259;-58
2023/01/20 11:25:25;;;;;;;1.47;1.20;;;;;;;11.06;100.00;97788.38;5113010;28;20213;-62
2023/01/20 11:27:52;;;;;;;1.70;1.10;;;;;;;11.01;100.00;97788.00;5112773;28;20273;-58
2023/01/20 11:30:25;;;;;;;2.43;1.50;;;;;;;11.19;100.00;97784.66;5113087;28;20263;-58
2023/01/20 11:33:07;;;;;;;1.60;1.47;;;;;;;11.17;100.00;97781.44;5112691;28;20284;-58
2023/01/20 11:35:34;;;;;;;0.77;0.67;;;;;;;11.23;100.00;97778.31;5113079;28;20201;-59
2023/01/20 11:38:24;;;;;;;2.90;1.80;;;;;;;11.55;100.00;97776.00;5112616;28;20209;-64
2023/01/20 11:40:53;;;;;;;3.33;2.13;;;;;;;11.64;100.00;97771.75;5112810;28;20197;-64
2023/01/20 11:43:31;;;;;;;1.83;1.43;;;;;;;11.32;100.00;97774.88;5112412;28;20193;-64
2023/01/20 11:46:21;;;;;;;5.03;1.97;;;;;;;11.15;100.00;97788.47;5112761;28;20205;-59
2023/01/20 11:48:49;;;;;;;3.73;1.20;;;;;;;11.42;100.00;97790.13;5112312;28;20624;-59
2023/01/20 11:51:23;;;;;;;2.70;1.37;;;;;;;11.56;100.00;97798.06;5112692;28;20200;-63